sensor_id;sensor_type;location;lat;lon;timestamp;P1;durP1;ratioP1;P2;durP2;ratioP2
33491;SDS011;20010;51.488;7.232;2022-09-30T00:01:21;10.65;;;9.75;;
33491;SDS011;20010;51.488;7.232;2022-09-30T00:03:51;10.53;;;9.63;;
33491;SDS011;20010;51.488;7.232;2022-09-30T00:06:19;9.98;;;9.27;;
33491;SDS011;20010;51.488;7.232;2022-09-30T00:08:46;10.70;;;9.85;;
33491;SDS011;20010;51.488;7.232;2022-09-30T00:11:14;10.07;;;9.27;;
33491;SDS011;20010;51.488;7.232;2022-09-30T00:13:43;10.52;;;9.73;;
33491;SDS011;20010;51.488;7.232;2022-09-30T00:16:11;9.88;;;9.27;;
33491;SDS011;20010;51.488;7.232;2022-09-30T00:18:40;10.63;;;9.82;;
33491;SDS011;20010;51.488;7.232;2022-09-30T00:21:09;10.50;;;9.70;;
33491;SDS011;20010;51.488;7.232;2022-09-30T00:23:37;10.73;;;9.90;;
33491;SDS011;20010;51.488;7.232;2022-09-30T00:26:05;10.52;;;9.63;;
33491;SDS011;20010;51.488;7.232;2022-09-30T00:28:35;11.07;;;10.27;;
33491;SDS011;20010;51.488;7.232;2022-09-30T00:31:03;9.85;;;9.15;;
33491;SDS011;20010;51.488;7.232;2022-09-30T00:33:32;9.65;;;9.05;;
33491;SDS011;20010;51.488;7.232;2022-09-30T00:35:59;9.40;;;8.80;;
33491;SDS011;20010;51.488;7.232;2022-09-30T00:38:27;10.05;;;9.23;;
33491;SDS011;20010;51.488;7.232;2022-09-30T00:40:54;10.55;;;9.75;;
33491;SDS011;20010;51.488;7.232;2022-09-30T00:43:38;10.05;;;9.40;;
33491;SDS011;20010;51.488;7.232;2022-09-30T00:46:27;10.73;;;9.93;;
33491;SDS011;20010;51.488;7.232;2022-09-30T00:48:57;9.88;;;9.18;;
33491;SDS011;20010;51.488;7.232;2022-09-30T00:51:37;11.30;;;10.60;;
33491;SDS011;20010;51.488;7.232;2022-09-30T00:54:12;9.50;;;8.90;;
33491;SDS011;20010;51.488;7.232;2022-09-30T00:56:46;10.70;;;9.60;;
33491;SDS011;20010;51.488;7.232;2022-09-30T01:01:52;10.57;;;9.77;;
33491;SDS011;20010;51.488;7.232;2022-09-30T01:04:20;11.32;;;10.43;;
33491;SDS011;20010;51.488;7.232;2022-09-30T01:06:49;10.10;;;9.40;;
33491;SDS011;20010;51.488;7.232;2022-09-30T01:09:16;10.90;;;9.95;;
33491;SDS011;20010;51.488;7.232;2022-09-30T01:11:44;10.32;;;9.63;;
33491;SDS011;20010;51.488;7.232;2022-09-30T01:14:14;10.23;;;9.63;;
33491;SDS011;20010;51.488;7.232;2022-09-30T01:16:49;11.05;;;10.15;;
33491;SDS011;20010;51.488;7.232;2022-09-30T01:19:25;10.50;;;9.80;;
33491;SDS011;20010;51.488;7.232;2022-09-30T01:43:23;10.18;;;9.48;;
33491;SDS011;20010;51.488;7.232;2022-09-30T01:46:01;11.10;;;10.30;;
33491;SDS011;20010;51.488;7.232;2022-09-30T01:51:09;11.68;;;10.65;;
33491;SDS011;20010;51.488;7.232;2022-09-30T01:58:55;11.30;;;10.40;;
33491;SDS011;20010;51.488;7.232;2022-09-30T02:01:48;10.20;;;9.38;;
33491;SDS011;20010;51.488;7.232;2022-09-30T02:04:42;9.88;;;9.27;;
33491;SDS011;20010;51.488;7.232;2022-09-30T02:07:19;9.85;;;9.20;;
33491;SDS011;20010;51.488;7.232;2022-09-30T02:09:56;10.63;;;9.80;;
33491;SDS011;20010;51.488;7.232;2022-09-30T02:12:29;10.77;;;10.02;;
33491;SDS011;20010;51.488;7.232;2022-09-30T02:18:27;10.43;;;9.73;;
33491;SDS011;20010;51.488;7.232;2022-09-30T02:21:08;10.67;;;9.87;;
33491;SDS011;20010;51.488;7.232;2022-09-30T02:23:38;10.75;;;9.80;;
33491;SDS011;20010;51.488;7.232;2022-09-30T02:26:24;11.07;;;10.25;;
33491;SDS011;20010;51.488;7.232;2022-09-30T02:28:59;10.30;;;9.50;;
33491;SDS011;20010;51.488;7.232;2022-09-30T02:31:53;11.35;;;10.38;;
33491;SDS011;20010;51.488;7.232;2022-09-30T02:34:28;10.57;;;9.85;;
33491;SDS011;20010;51.488;7.232;2022-09-30T02:37:05;11.15;;;10.25;;
33491;SDS011;20010;51.488;7.232;2022-09-30T02:39:47;11.30;;;10.40;;
33491;SDS011;20010;51.488;7.232;2022-09-30T02:42:17;11.35;;;10.50;;
33491;SDS011;20010;51.488;7.232;2022-09-30T02:44:54;11.95;;;11.05;;
33491;SDS011;20010;51.488;7.232;2022-09-30T02:52:52;12.07;;;11.13;;
33491;SDS011;20010;51.488;7.232;2022-09-30T02:55:37;10.68;;;9.88;;
33491;SDS011;20010;51.488;7.232;2022-09-30T02:58:26;11.50;;;10.60;;
33491;SDS011;20010;51.488;7.232;2022-09-30T03:00:55;11.27;;;10.38;;
33491;SDS011;20010;51.488;7.232;2022-09-30T03:03:25;10.65;;;9.93;;
33491;SDS011;20010;51.488;7.232;2022-09-30T03:05:54;10.48;;;9.77;;
33491;SDS011;20010;51.488;7.232;2022-09-30T03:08:21;11.35;;;10.57;;
33491;SDS011;20010;51.488;7.232;2022-09-30T03:10:49;11.23;;;10.30;;
33491;SDS011;20010;51.488;7.232;2022-09-30T03:43:38;11.63;;;10.73;;
33491;SDS011;20010;51.488;7.232;2022-09-30T03:46:17;11.23;;;10.43;;
33491;SDS011;20010;51.488;7.232;2022-09-30T03:48:55;11.27;;;10.30;;
33491;SDS011;20010;51.488;7.232;2022-09-30T03:51:27;12.55;;;11.45;;
33491;SDS011;20010;51.488;7.232;2022-09-30T03:53:55;12.45;;;11.45;;
33491;SDS011;20010;51.488;7.232;2022-09-30T03:56:24;12.82;;;11.90;;
33491;SDS011;20010;51.488;7.232;2022-09-30T03:58:53;11.93;;;11.02;;
33491;SDS011;20010;51.488;7.232;2022-09-30T04:01:21;11.50;;;10.60;;
33491;SDS011;20010;51.488;7.232;2022-09-30T04:03:49;12.05;;;11.00;;
33491;SDS011;20010;51.488;7.232;2022-09-30T04:06:21;12.30;;;11.05;;
33491;SDS011;20010;51.488;7.232;2022-09-30T04:08:49;12.27;;;11.02;;
33491;SDS011;20010;51.488;7.232;2022-09-30T04:11:19;12.27;;;11.38;;
33491;SDS011;20010;51.488;7.232;2022-09-30T04:13:45;14.68;;;13.07;;
33491;SDS011;20010;51.488;7.232;2022-09-30T04:16:12;13.27;;;12.18;;
33491;SDS011;20010;51.488;7.232;2022-09-30T04:18:39;13.38;;;12.35;;
33491;SDS011;20010;51.488;7.232;2022-09-30T04:21:09;13.70;;;12.27;;
33491;SDS011;20010;51.488;7.232;2022-09-30T04:23:38;13.27;;;12.23;;
33491;SDS011;20010;51.488;7.232;2022-09-30T04:26:08;14.00;;;12.70;;
33491;SDS011;20010;51.488;7.232;2022-09-30T04:28:37;14.27;;;13.18;;
33491;SDS011;20010;51.488;7.232;2022-09-30T04:31:04;12.27;;;11.25;;
33491;SDS011;20010;51.488;7.232;2022-09-30T04:33:32;12.45;;;11.45;;
33491;SDS011;20010;51.488;7.232;2022-09-30T04:35:59;12.57;;;11.55;;
33491;SDS011;20010;51.488;7.232;2022-09-30T04:38:26;13.07;;;11.93;;
33491;SDS011;20010;51.488;7.232;2022-09-30T04:40:54;13.85;;;12.75;;
33491;SDS011;20010;51.488;7.232;2022-09-30T04:43:22;13.50;;;12.32;;
33491;SDS011;20010;51.488;7.232;2022-09-30T04:45:50;13.27;;;12.30;;
33491;SDS011;20010;51.488;7.232;2022-09-30T04:48:17;13.23;;;12.18;;
33491;SDS011;20010;51.488;7.232;2022-09-30T04:50:45;14.20;;;12.85;;
33491;SDS011;20010;51.488;7.232;2022-09-30T04:53:12;14.57;;;13.27;;
33491;SDS011;20010;51.488;7.232;2022-09-30T04:55:42;13.98;;;12.82;;
33491;SDS011;20010;51.488;7.232;2022-09-30T04:58:10;15.55;;;14.20;;
33491;SDS011;20010;51.488;7.232;2022-09-30T05:00:38;15.15;;;13.60;;
33491;SDS011;20010;51.488;7.232;2022-09-30T05:03:07;15.23;;;13.80;;
33491;SDS011;20010;51.488;7.232;2022-09-30T05:05:34;14.93;;;13.63;;
33491;SDS011;20010;51.488;7.232;2022-09-30T05:08:02;15.50;;;14.20;;
33491;SDS011;20010;51.488;7.232;2022-09-30T05:10:30;14.98;;;13.77;;
33491;SDS011;20010;51.488;7.232;2022-09-30T05:12:57;16.40;;;14.68;;
33491;SDS011;20010;51.488;7.232;2022-09-30T05:15:24;15.60;;;14.18;;
33491;SDS011;20010;51.488;7.232;2022-09-30T05:17:52;14.73;;;13.18;;
33491;SDS011;20010;51.488;7.232;2022-09-30T05:20:19;15.75;;;14.35;;
33491;SDS011;20010;51.488;7.232;2022-09-30T05:22:47;14.57;;;13.38;;
33491;SDS011;20010;51.488;7.232;2022-09-30T05:25:18;16.55;;;14.70;;
33491;SDS011;20010;51.488;7.232;2022-09-30T05:27:49;15.05;;;13.65;;
33491;SDS011;20010;51.488;7.232;2022-09-30T05:30:16;15.85;;;14.35;;
33491;SDS011;20010;51.488;7.232;2022-09-30T05:32:43;16.40;;;14.75;;
33491;SDS011;20010;51.488;7.232;2022-09-30T05:35:11;20.88;;;14.95;;
33491;SDS011;20010;51.488;7.232;2022-09-30T05:37:40;15.75;;;14.25;;
33491;SDS011;20010;51.488;7.232;2022-09-30T05:40:08;15.85;;;14.35;;
33491;SDS011;20010;51.488;7.232;2022-09-30T05:42:35;15.32;;;13.82;;
33491;SDS011;20010;51.488;7.232;2022-09-30T05:45:03;19.65;;;16.83;;
33491;SDS011;20010;51.488;7.232;2022-09-30T05:47:30;16.63;;;15.05;;
33491;SDS011;20010;51.488;7.232;2022-09-30T05:49:58;14.68;;;13.27;;
33491;SDS011;20010;51.488;7.232;2022-09-30T05:52:25;14.80;;;13.45;;
33491;SDS011;20010;51.488;7.232;2022-09-30T05:54:53;14.00;;;12.80;;
33491;SDS011;20010;51.488;7.232;2022-09-30T05:57:22;13.52;;;12.43;;
33491;SDS011;20010;51.488;7.232;2022-09-30T05:59:50;14.93;;;13.63;;
33491;SDS011;20010;51.488;7.232;2022-09-30T06:02:17;14.70;;;13.43;;
33491;SDS011;20010;51.488;7.232;2022-09-30T06:04:44;14.85;;;13.40;;
33491;SDS011;20010;51.488;7.232;2022-09-30T06:07:11;14.95;;;13.48;;
33491;SDS011;20010;51.488;7.232;2022-09-30T06:09:38;16.70;;;13.63;;
33491;SDS011;20010;51.488;7.232;2022-09-30T06:12:07;16.13;;;14.52;;
33491;SDS011;20010;51.488;7.232;2022-09-30T06:14:34;15.18;;;13.73;;
33491;SDS011;20010;51.488;7.232;2022-09-30T06:17:01;15.80;;;14.30;;
33491;SDS011;20010;51.488;7.232;2022-09-30T06:19:28;15.38;;;13.18;;
33491;SDS011;20010;51.488;7.232;2022-09-30T06:21:56;16.17;;;14.68;;
33491;SDS011;20010;51.488;7.232;2022-09-30T06:24:23;16.13;;;14.45;;
33491;SDS011;20010;51.488;7.232;2022-09-30T06:26:50;15.02;;;13.77;;
33491;SDS011;20010;51.488;7.232;2022-09-30T06:29:17;16.70;;;15.00;;
33491;SDS011;20010;51.488;7.232;2022-09-30T06:31:44;15.48;;;14.00;;
33491;SDS011;20010;51.488;7.232;2022-09-30T06:34:11;15.77;;;14.20;;
33491;SDS011;20010;51.488;7.232;2022-09-30T06:36:38;15.35;;;13.73;;
33491;SDS011;20010;51.488;7.232;2022-09-30T06:39:05;16.33;;;14.75;;
33491;SDS011;20010;51.488;7.232;2022-09-30T06:41:38;14.82;;;13.32;;
33491;SDS011;20010;51.488;7.232;2022-09-30T06:44:09;15.82;;;14.35;;
33491;SDS011;20010;51.488;7.232;2022-09-30T06:46:36;15.45;;;14.18;;
33491;SDS011;20010;51.488;7.232;2022-09-30T06:49:18;15.65;;;14.15;;
33491;SDS011;20010;51.488;7.232;2022-09-30T06:51:46;15.02;;;13.70;;
33491;SDS011;20010;51.488;7.232;2022-09-30T06:54:12;15.70;;;14.30;;
33491;SDS011;20010;51.488;7.232;2022-09-30T06:56:39;16.35;;;14.10;;
33491;SDS011;20010;51.488;7.232;2022-09-30T06:59:07;17.08;;;15.38;;
33491;SDS011;20010;51.488;7.232;2022-09-30T07:01:34;19.70;;;15.80;;
33491;SDS011;20010;51.488;7.232;2022-09-30T07:04:01;15.45;;;14.00;;
33491;SDS011;20010;51.488;7.232;2022-09-30T07:06:34;15.73;;;14.43;;
33491;SDS011;20010;51.488;7.232;2022-09-30T07:09:01;20.40;;;16.05;;
33491;SDS011;20010;51.488;7.232;2022-09-30T07:11:28;18.65;;;16.95;;
33491;SDS011;20010;51.488;7.232;2022-09-30T07:13:55;17.60;;;15.98;;
33491;SDS011;20010;51.488;7.232;2022-09-30T07:16:22;18.13;;;16.13;;
33491;SDS011;20010;51.488;7.232;2022-09-30T07:18:51;17.75;;;16.05;;
33491;SDS011;20010;51.488;7.232;2022-09-30T07:21:19;17.33;;;15.63;;
33491;SDS011;20010;51.488;7.232;2022-09-30T07:23:45;26.48;;;19.25;;
33491;SDS011;20010;51.488;7.232;2022-09-30T07:26:14;18.05;;;16.13;;
33491;SDS011;20010;51.488;7.232;2022-09-30T07:28:42;19.42;;;15.20;;
33491;SDS011;20010;51.488;7.232;2022-09-30T07:31:12;16.15;;;14.57;;
33491;SDS011;20010;51.488;7.232;2022-09-30T07:34:02;19.10;;;15.88;;
33491;SDS011;20010;51.488;7.232;2022-09-30T07:36:32;17.27;;;15.48;;
33491;SDS011;20010;51.488;7.232;2022-09-30T07:39:01;16.67;;;15.18;;
33491;SDS011;20010;51.488;7.232;2022-09-30T07:41:34;16.77;;;15.15;;
33491;SDS011;20010;51.488;7.232;2022-09-30T07:44:04;18.90;;;16.90;;
33491;SDS011;20010;51.488;7.232;2022-09-30T07:46:33;18.83;;;16.80;;
33491;SDS011;20010;51.488;7.232;2022-09-30T07:51:35;16.15;;;14.32;;
33491;SDS011;20010;51.488;7.232;2022-09-30T07:54:05;17.52;;;15.68;;
33491;SDS011;20010;51.488;7.232;2022-09-30T07:56:34;17.20;;;15.55;;
33491;SDS011;20010;51.488;7.232;2022-09-30T07:59:23;17.55;;;15.85;;
33491;SDS011;20010;51.488;7.232;2022-09-30T08:01:52;21.30;;;15.80;;
33491;SDS011;20010;51.488;7.232;2022-09-30T08:04:19;17.27;;;15.57;;
33491;SDS011;20010;51.488;7.232;2022-09-30T08:06:50;16.35;;;14.70;;
33491;SDS011;20010;51.488;7.232;2022-09-30T08:09:19;17.23;;;14.73;;
33491;SDS011;20010;51.488;7.232;2022-09-30T08:11:48;16.25;;;14.63;;
33491;SDS011;20010;51.488;7.232;2022-09-30T08:14:16;17.30;;;15.25;;
33491;SDS011;20010;51.488;7.232;2022-09-30T08:16:48;17.27;;;14.82;;
33491;SDS011;20010;51.488;7.232;2022-09-30T08:19:17;16.60;;;14.98;;
33491;SDS011;20010;51.488;7.232;2022-09-30T08:21:45;15.77;;;14.07;;
33491;SDS011;20010;51.488;7.232;2022-09-30T08:24:13;17.77;;;16.05;;
33491;SDS011;20010;51.488;7.232;2022-09-30T08:26:40;15.80;;;13.65;;
33491;SDS011;20010;51.488;7.232;2022-09-30T08:29:08;16.05;;;14.60;;
33491;SDS011;20010;51.488;7.232;2022-09-30T08:31:50;16.17;;;14.23;;
33491;SDS011;20010;51.488;7.232;2022-09-30T08:34:17;15.25;;;13.88;;
33491;SDS011;20010;51.488;7.232;2022-09-30T08:36:44;14.35;;;12.75;;
33491;SDS011;20010;51.488;7.232;2022-09-30T08:39:11;14.93;;;13.45;;
33491;SDS011;20010;51.488;7.232;2022-09-30T08:52:51;12.75;;;11.65;;
33491;SDS011;20010;51.488;7.232;2022-09-30T08:55:24;13.68;;;12.02;;
33491;SDS011;20010;51.488;7.232;2022-09-30T08:57:54;12.43;;;11.32;;
33491;SDS011;20010;51.488;7.232;2022-09-30T09:00:22;12.10;;;11.07;;
33491;SDS011;20010;51.488;7.232;2022-09-30T09:02:53;15.80;;;14.32;;
33491;SDS011;20010;51.488;7.232;2022-09-30T09:05:27;13.27;;;12.00;;
33491;SDS011;20010;51.488;7.232;2022-09-30T09:16:20;11.50;;;10.35;;
33491;SDS011;20010;51.488;7.232;2022-09-30T09:18:58;12.55;;;11.55;;
33491;SDS011;20010;51.488;7.232;2022-09-30T09:24:25;11.93;;;10.93;;
33491;SDS011;20010;51.488;7.232;2022-09-30T09:26:56;12.75;;;10.90;;
33491;SDS011;20010;51.488;7.232;2022-09-30T09:32:18;11.23;;;10.38;;
33491;SDS011;20010;51.488;7.232;2022-09-30T09:34:52;11.30;;;10.40;;
33491;SDS011;20010;51.488;7.232;2022-09-30T09:43:17;14.43;;;13.23;;
33491;SDS011;20010;51.488;7.232;2022-09-30T09:51:42;12.50;;;11.30;;
33491;SDS011;20010;51.488;7.232;2022-09-30T09:54:30;12.48;;;11.35;;
33491;SDS011;20010;51.488;7.232;2022-09-30T09:57:06;12.82;;;11.52;;
33491;SDS011;20010;51.488;7.232;2022-09-30T09:59:35;13.13;;;10.85;;
33491;SDS011;20010;51.488;7.232;2022-09-30T10:02:20;12.75;;;11.52;;
33491;SDS011;20010;51.488;7.232;2022-09-30T10:04:55;11.45;;;10.55;;
33491;SDS011;20010;51.488;7.232;2022-09-30T10:07:27;14.32;;;11.60;;
33491;SDS011;20010;51.488;7.232;2022-09-30T10:10:17;10.50;;;9.70;;
33491;SDS011;20010;51.488;7.232;2022-09-30T10:12:49;11.68;;;10.65;;
33491;SDS011;20010;51.488;7.232;2022-09-30T10:15:22;14.65;;;11.50;;
33491;SDS011;20010;51.488;7.232;2022-09-30T10:17:55;11.70;;;10.73;;
33491;SDS011;20010;51.488;7.232;2022-09-30T10:25:35;11.98;;;10.82;;
33491;SDS011;20010;51.488;7.232;2022-09-30T10:28:18;11.80;;;10.90;;
33491;SDS011;20010;51.488;7.232;2022-09-30T10:38:34;11.57;;;10.43;;
33491;SDS011;20010;51.488;7.232;2022-09-30T10:41:03;11.55;;;10.65;;
33491;SDS011;20010;51.488;7.232;2022-09-30T10:43:41;11.25;;;10.27;;
33491;SDS011;20010;51.488;7.232;2022-09-30T10:46:12;12.88;;;11.60;;
33491;SDS011;20010;51.488;7.232;2022-09-30T10:48:52;13.65;;;11.98;;
33491;SDS011;20010;51.488;7.232;2022-09-30T10:51:28;11.60;;;10.65;;
33491;SDS011;20010;51.488;7.232;2022-09-30T10:54:02;11.45;;;10.45;;
33491;SDS011;20010;51.488;7.232;2022-09-30T10:56:32;11.10;;;10.00;;
33491;SDS011;20010;51.488;7.232;2022-09-30T10:59:03;10.02;;;9.23;;
33491;SDS011;20010;51.488;7.232;2022-09-30T11:01:49;11.50;;;10.32;;
33491;SDS011;20010;51.488;7.232;2022-09-30T11:04:36;10.65;;;9.68;;
33491;SDS011;20010;51.488;7.232;2022-09-30T11:07:53;11.52;;;10.65;;
33491;SDS011;20010;51.488;7.232;2022-09-30T11:12:38;11.68;;;10.50;;
33491;SDS011;20010;51.488;7.232;2022-09-30T11:15:23;10.20;;;9.18;;
33491;SDS011;20010;51.488;7.232;2022-09-30T11:17:58;11.20;;;10.23;;
33491;SDS011;20010;51.488;7.232;2022-09-30T11:20:42;10.60;;;9.70;;
33491;SDS011;20010;51.488;7.232;2022-09-30T11:31:18;10.30;;;9.48;;
33491;SDS011;20010;51.488;7.232;2022-09-30T11:36:47;10.57;;;9.70;;
33491;SDS011;20010;51.488;7.232;2022-09-30T11:58:54;10.05;;;9.32;;
33491;SDS011;20010;51.488;7.232;2022-09-30T12:01:27;10.20;;;9.40;;
33491;SDS011;20010;51.488;7.232;2022-09-30T12:04:26;10.57;;;9.77;;
33491;SDS011;20010;51.488;7.232;2022-09-30T12:07:13;10.68;;;9.77;;
33491;SDS011;20010;51.488;7.232;2022-09-30T12:09:43;9.95;;;9.35;;
33491;SDS011;20010;51.488;7.232;2022-09-30T12:12:15;10.50;;;9.70;;
33491;SDS011;20010;51.488;7.232;2022-09-30T12:17:33;9.43;;;8.63;;
33491;SDS011;20010;51.488;7.232;2022-09-30T12:20:09;9.68;;;9.02;;
33491;SDS011;20010;51.488;7.232;2022-09-30T12:22:44;9.35;;;8.65;;
33491;SDS011;20010;51.488;7.232;2022-09-30T12:25:14;10.02;;;8.90;;
33491;SDS011;20010;51.488;7.232;2022-09-30T12:30:26;10.13;;;9.05;;
33491;SDS011;20010;51.488;7.232;2022-09-30T12:48:09;8.10;;;7.40;;
33491;SDS011;20010;51.488;7.232;2022-09-30T12:53:16;9.60;;;8.95;;
33491;SDS011;20010;51.488;7.232;2022-09-30T12:55:52;9.10;;;8.30;;
33491;SDS011;20010;51.488;7.232;2022-09-30T12:58:24;8.82;;;8.05;;
33491;SDS011;20010;51.488;7.232;2022-09-30T13:03:45;8.60;;;8.10;;
33491;SDS011;20010;51.488;7.232;2022-09-30T13:06:14;8.93;;;8.30;;
33491;SDS011;20010;51.488;7.232;2022-09-30T13:11:21;8.55;;;8.00;;
33491;SDS011;20010;51.488;7.232;2022-09-30T13:14:01;9.43;;;8.73;;
33491;SDS011;20010;51.488;7.232;2022-09-30T13:16:57;9.43;;;8.88;;
33491;SDS011;20010;51.488;7.232;2022-09-30T13:19:34;9.25;;;8.68;;
33491;SDS011;20010;51.488;7.232;2022-09-30T13:30:39;9.95;;;9.13;;
33491;SDS011;20010;51.488;7.232;2022-09-30T13:33:26;9.60;;;8.90;;
33491;SDS011;20010;51.488;7.232;2022-09-30T13:35:58;9.77;;;8.98;;
33491;SDS011;20010;51.488;7.232;2022-09-30T13:38:37;11.07;;;10.15;;
33491;SDS011;20010;51.488;7.232;2022-09-30T13:41:23;9.73;;;9.23;;
33491;SDS011;20010;51.488;7.232;2022-09-30T13:43:56;9.70;;;9.13;;
33491;SDS011;20010;51.488;7.232;2022-09-30T13:49:28;10.23;;;9.05;;
33491;SDS011;20010;51.488;7.232;2022-09-30T13:51:57;10.13;;;9.50;;
33491;SDS011;20010;51.488;7.232;2022-09-30T13:54:30;9.73;;;9.13;;
33491;SDS011;20010;51.488;7.232;2022-09-30T13:57:03;10.48;;;9.68;;
33491;SDS011;20010;51.488;7.232;2022-09-30T14:05:15;9.60;;;9.00;;
33491;SDS011;20010;51.488;7.232;2022-09-30T14:11:18;10.20;;;9.60;;
33491;SDS011;20010;51.488;7.232;2022-09-30T14:13:48;9.57;;;8.98;;
33491;SDS011;20010;51.488;7.232;2022-09-30T14:21:54;9.35;;;8.80;;
33491;SDS011;20010;51.488;7.232;2022-09-30T14:29:46;10.05;;;9.30;;
33491;SDS011;20010;51.488;7.232;2022-09-30T14:32:29;10.02;;;9.20;;
33491;SDS011;20010;51.488;7.232;2022-09-30T14:34:59;9.25;;;8.52;;
33491;SDS011;20010;51.488;7.232;2022-09-30T14:37:34;9.90;;;9.23;;
33491;SDS011;20010;51.488;7.232;2022-09-30T14:40:10;8.63;;;8.13;;
33491;SDS011;20010;51.488;7.232;2022-09-30T14:42:41;9.57;;;8.98;;
33491;SDS011;20010;51.488;7.232;2022-09-30T14:45:16;8.27;;;7.78;;
33491;SDS011;20010;51.488;7.232;2022-09-30T14:47:47;8.85;;;8.35;;
33491;SDS011;20010;51.488;7.232;2022-09-30T14:50:17;9.00;;;8.40;;
33491;SDS011;20010;51.488;7.232;2022-09-30T14:52:49;9.90;;;8.93;;
33491;SDS011;20010;51.488;7.232;2022-09-30T14:55:23;8.88;;;8.18;;
33491;SDS011;20010;51.488;7.232;2022-09-30T15:01:13;8.82;;;8.32;;
33491;SDS011;20010;51.488;7.232;2022-09-30T15:03:43;8.77;;;8.18;;
33491;SDS011;20010;51.488;7.232;2022-09-30T15:08:44;8.32;;;7.85;;
33491;SDS011;20010;51.488;7.232;2022-09-30T15:11:18;8.30;;;7.78;;
33491;SDS011;20010;51.488;7.232;2022-09-30T15:13:47;8.95;;;8.45;;
33491;SDS011;20010;51.488;7.232;2022-09-30T15:16:21;7.75;;;7.35;;
33491;SDS011;20010;51.488;7.232;2022-09-30T15:18:49;7.95;;;7.45;;
33491;SDS011;20010;51.488;7.232;2022-09-30T15:21:16;8.10;;;7.70;;
33491;SDS011;20010;51.488;7.232;2022-09-30T15:23:44;8.32;;;7.82;;
33491;SDS011;20010;51.488;7.232;2022-09-30T15:26:17;8.70;;;8.10;;
33491;SDS011;20010;51.488;7.232;2022-09-30T15:28:48;8.98;;;8.13;;
33491;SDS011;20010;51.488;7.232;2022-09-30T15:31:25;8.10;;;7.50;;
33491;SDS011;20010;51.488;7.232;2022-09-30T15:34:10;7.95;;;7.55;;
33491;SDS011;20010;51.488;7.232;2022-09-30T15:36:38;7.88;;;7.28;;
33491;SDS011;20010;51.488;7.232;2022-09-30T15:39:11;7.63;;;7.10;;
33491;SDS011;20010;51.488;7.232;2022-09-30T15:41:47;8.20;;;7.60;;
33491;SDS011;20010;51.488;7.232;2022-09-30T15:44:16;7.68;;;7.10;;
33491;SDS011;20010;51.488;7.232;2022-09-30T15:46:59;7.85;;;7.45;;
33491;SDS011;20010;51.488;7.232;2022-09-30T15:49:29;8.25;;;7.85;;
33491;SDS011;20010;51.488;7.232;2022-09-30T15:54:49;8.15;;;7.55;;
33491;SDS011;20010;51.488;7.232;2022-09-30T15:57:49;8.55;;;8.05;;
33491;SDS011;20010;51.488;7.232;2022-09-30T16:00:35;7.85;;;7.30;;
33491;SDS011;20010;51.488;7.232;2022-09-30T16:05:49;8.80;;;8.20;;
33491;SDS011;20010;51.488;7.232;2022-09-30T16:08:20;7.68;;;7.20;;
33491;SDS011;20010;51.488;7.232;2022-09-30T16:10:51;8.52;;;7.78;;
33491;SDS011;20010;51.488;7.232;2022-09-30T16:13:21;7.55;;;7.15;;
33491;SDS011;20010;51.488;7.232;2022-09-30T16:15:53;7.75;;;7.25;;
33491;SDS011;20010;51.488;7.232;2022-09-30T16:18:23;8.05;;;7.57;;
33491;SDS011;20010;51.488;7.232;2022-09-30T16:21:00;8.13;;;7.63;;
33491;SDS011;20010;51.488;7.232;2022-09-30T16:23:36;7.95;;;7.45;;
33491;SDS011;20010;51.488;7.232;2022-09-30T16:28:46;8.18;;;7.68;;
33491;SDS011;20010;51.488;7.232;2022-09-30T16:31:12;10.63;;;9.90;;
33491;SDS011;20010;51.488;7.232;2022-09-30T16:33:42;9.40;;;8.73;;
33491;SDS011;20010;51.488;7.232;2022-09-30T16:36:09;9.00;;;8.50;;
33491;SDS011;20010;51.488;7.232;2022-09-30T16:38:37;9.75;;;9.10;;
33491;SDS011;20010;51.488;7.232;2022-09-30T16:41:04;8.68;;;8.27;;
33491;SDS011;20010;51.488;7.232;2022-09-30T16:43:31;8.93;;;8.43;;
33491;SDS011;20010;51.488;7.232;2022-09-30T16:45:58;8.77;;;8.27;;
33491;SDS011;20010;51.488;7.232;2022-09-30T16:48:25;8.88;;;8.38;;
33491;SDS011;20010;51.488;7.232;2022-09-30T16:53:31;10.10;;;9.27;;
33491;SDS011;20010;51.488;7.232;2022-09-30T16:55:58;8.65;;;8.02;;
33491;SDS011;20010;51.488;7.232;2022-09-30T16:58:25;8.77;;;8.00;;
33491;SDS011;20010;51.488;7.232;2022-09-30T17:00:52;9.80;;;8.32;;
33491;SDS011;20010;51.488;7.232;2022-09-30T17:03:19;8.48;;;7.65;;
33491;SDS011;20010;51.488;7.232;2022-09-30T17:05:49;8.80;;;7.90;;
33491;SDS011;20010;51.488;7.232;2022-09-30T17:08:19;9.10;;;8.20;;
33491;SDS011;20010;51.488;7.232;2022-09-30T17:10:49;8.90;;;8.15;;
33491;SDS011;20010;51.488;7.232;2022-09-30T17:13:16;9.07;;;8.32;;
33491;SDS011;20010;51.488;7.232;2022-09-30T17:15:47;9.32;;;8.80;;
33491;SDS011;20010;51.488;7.232;2022-09-30T17:18:15;8.68;;;8.18;;
33491;SDS011;20010;51.488;7.232;2022-09-30T17:20:44;8.27;;;7.68;;
33491;SDS011;20010;51.488;7.232;2022-09-30T17:23:13;12.80;;;11.70;;
33491;SDS011;20010;51.488;7.232;2022-09-30T17:25:41;16.48;;;14.88;;
33491;SDS011;20010;51.488;7.232;2022-09-30T17:28:08;15.10;;;13.88;;
33491;SDS011;20010;51.488;7.232;2022-09-30T17:30:36;11.40;;;10.63;;
33491;SDS011;20010;51.488;7.232;2022-09-30T17:33:06;11.68;;;10.80;;
33491;SDS011;20010;51.488;7.232;2022-09-30T17:35:37;9.80;;;9.30;;
33491;SDS011;20010;51.488;7.232;2022-09-30T17:38:09;16.98;;;15.77;;
33491;SDS011;20010;51.488;7.232;2022-09-30T17:40:37;19.83;;;17.95;;
33491;SDS011;20010;51.488;7.232;2022-09-30T17:43:23;22.80;;;20.38;;
33491;SDS011;20010;51.488;7.232;2022-09-30T17:45:49;13.73;;;12.63;;
33491;SDS011;20010;51.488;7.232;2022-09-30T17:48:17;13.07;;;11.98;;
33491;SDS011;20010;51.488;7.232;2022-09-30T17:50:45;13.40;;;12.35;;
33491;SDS011;20010;51.488;7.232;2022-09-30T17:53:13;12.38;;;11.57;;
33491;SDS011;20010;51.488;7.232;2022-09-30T17:55:44;12.18;;;11.18;;
33491;SDS011;20010;51.488;7.232;2022-09-30T17:58:16;13.80;;;12.90;;
33491;SDS011;20010;51.488;7.232;2022-09-30T18:00:45;12.18;;;11.30;;
33491;SDS011;20010;51.488;7.232;2022-09-30T18:03:12;12.15;;;11.35;;
33491;SDS011;20010;51.488;7.232;2022-09-30T18:05:39;12.60;;;11.70;;
33491;SDS011;20010;51.488;7.232;2022-09-30T18:08:05;12.70;;;11.80;;
33491;SDS011;20010;51.488;7.232;2022-09-30T18:10:34;15.13;;;13.98;;
33491;SDS011;20010;51.488;7.232;2022-09-30T18:13:02;12.07;;;11.10;;
33491;SDS011;20010;51.488;7.232;2022-09-30T18:15:29;16.95;;;15.65;;
33491;SDS011;20010;51.488;7.232;2022-09-30T18:17:56;12.75;;;11.82;;
33491;SDS011;20010;51.488;7.232;2022-09-30T18:20:23;13.38;;;12.43;;
33491;SDS011;20010;51.488;7.232;2022-09-30T18:22:52;13.75;;;12.63;;
33491;SDS011;20010;51.488;7.232;2022-09-30T18:25:19;13.45;;;12.43;;
33491;SDS011;20010;51.488;7.232;2022-09-30T18:27:47;11.65;;;10.82;;
33491;SDS011;20010;51.488;7.232;2022-09-30T18:30:16;10.30;;;9.57;;
33491;SDS011;20010;51.488;7.232;2022-09-30T18:32:48;11.35;;;10.65;;
33491;SDS011;20010;51.488;7.232;2022-09-30T18:35:17;11.65;;;10.45;;
33491;SDS011;20010;51.488;7.232;2022-09-30T18:37:46;10.85;;;9.98;;
33491;SDS011;20010;51.488;7.232;2022-09-30T18:40:18;11.30;;;10.50;;
33491;SDS011;20010;51.488;7.232;2022-09-30T18:42:47;10.35;;;9.65;;
33491;SDS011;20010;51.488;7.232;2022-09-30T18:45:17;11.90;;;11.10;;
33491;SDS011;20010;51.488;7.232;2022-09-30T18:47:45;10.00;;;9.40;;
33491;SDS011;20010;51.488;7.232;2022-09-30T18:50:12;10.25;;;9.60;;